createdAt,value
2023-02-23T00:00:59.003Z,100939.94
2023-02-23T00:03:25.488Z,100936.47
2023-02-23T00:05:51.888Z,100935.66
2023-02-23T00:08:19.354Z,100933.03
2023-02-23T00:10:45.777Z,100940.97
2023-02-23T00:13:12.162Z,100930.38
2023-02-23T00:15:38.582Z,100930.44
2023-02-23T00:18:05.010Z,100929.63
2023-02-23T00:20:31.442Z,100931.41
2023-02-23T00:22:57.836Z,100924.34
2023-02-23T00:25:24.587Z,100930.53
2023-02-23T00:27:51.471Z,100921.72
2023-02-23T00:30:18.479Z,100920.81
2023-02-23T00:32:45.076Z,100927.00
2023-02-23T00:35:11.559Z,100927.00
2023-02-23T00:37:38.078Z,100925.19
2023-02-23T00:40:05.081Z,100927.84
2023-02-23T00:42:31.461Z,100932.19
2023-02-23T00:44:57.874Z,100927.78
2023-02-23T00:47:24.267Z,100925.13
2023-02-23T00:49:50.685Z,100933.09
2023-02-23T00:52:17.078Z,100931.34
2023-02-23T00:54:43.552Z,100926.97
2023-02-23T00:57:09.952Z,100926.13
2023-02-23T00:59:36.410Z,100927.88
2023-02-23T01:02:02.858Z,100927.91
2023-02-23T01:04:29.252Z,100922.59
2023-02-23T01:06:55.669Z,100927.91
2023-02-23T01:09:22.159Z,100928.81
2023-02-23T01:11:48.577Z,100935.00
2023-02-23T01:14:14.987Z,100934.13
2023-02-23T01:16:41.430Z,100936.78
2023-02-23T01:19:07.813Z,100934.97
2023-02-23T01:21:36.173Z,100937.63
2023-02-23T01:24:02.744Z,100929.66
2023-02-23T01:26:33.505Z,100929.66
2023-02-23T01:29:02.170Z,100926.16
2023-02-23T01:31:28.964Z,100921.72
2023-02-23T01:33:56.432Z,100928.81
2023-02-23T01:36:22.888Z,100919.09
2023-02-23T01:38:49.375Z,100922.63
2023-02-23T01:41:16.901Z,100926.16
2023-02-23T01:44:06.325Z,100921.69
2023-02-23T01:46:37.197Z,100926.09
2023-02-23T01:49:03.626Z,100925.25
2023-02-23T01:51:31.899Z,100919.09
2023-02-23T01:54:09.994Z,100918.25
2023-02-23T01:56:41.046Z,100917.41
2023-02-23T01:59:07.459Z,100917.34
2023-02-23T02:01:33.847Z,100920.84
2023-02-23T02:04:01.869Z,100921.69
2023-02-23T02:06:28.267Z,100921.69
2023-02-23T02:08:56.703Z,100914.56
2023-02-23T02:11:23.738Z,100911.88
2023-02-23T02:13:50.146Z,100909.22
2023-02-23T02:16:28.297Z,100912.75
2023-02-23T02:19:12.944Z,100914.50
2023-02-23T02:22:00.002Z,100919.78
2023-02-23T02:24:51.132Z,100911.78
2023-02-23T02:27:32.584Z,100910.06
2023-02-23T02:30:22.604Z,100915.34
2023-02-23T02:32:56.027Z,100917.13
2023-02-23T02:35:42.120Z,100919.75
2023-02-23T02:38:26.075Z,100917.09
2023-02-23T02:40:53.806Z,100916.25
2023-02-23T02:43:34.955Z,100913.63
2023-02-23T02:46:10.677Z,100919.88
2023-02-23T02:48:39.989Z,100909.31
2023-02-23T02:51:16.488Z,100912.88
2023-02-23T02:54:09.692Z,100912.09
2023-02-23T02:56:40.679Z,100912.13
2023-02-23T02:59:11.945Z,100912.16
2023-02-23T03:01:38.373Z,100915.72
2023-02-23T03:04:22.538Z,100908.69
2023-02-23T03:06:59.505Z,100917.47
2023-02-23T03:09:51.881Z,100904.31
2023-02-23T03:12:24.241Z,100904.38
2023-02-23T03:15:03.675Z,100906.16
2023-02-23T03:17:33.068Z,100901.78
2023-02-23T03:20:04.431Z,100897.44
2023-02-23T03:22:38.459Z,100903.69
2023-02-23T03:25:12.237Z,100900.16
2023-02-23T03:27:46.781Z,100908.97
2023-02-23T03:30:31.622Z,100902.78
2023-02-23T03:33:00.132Z,100901.94
2023-02-23T03:35:40.475Z,100904.59
2023-02-23T03:38:35.190Z,100900.25
2023-02-23T03:41:01.585Z,100903.81
2023-02-23T03:43:32.465Z,100902.97
2023-02-23T03:45:58.923Z,100901.19
2023-02-23T03:48:25.448Z,100898.53
2023-02-23T03:50:56.724Z,100898.50
2023-02-23T03:53:27.012Z,100892.31
2023-02-23T03:55:54.600Z,100904.69
2023-02-23T03:58:28.148Z,100907.34
2023-02-23T04:00:54.551Z,100908.25
2023-02-23T04:03:21.001Z,100912.56
2023-02-23T04:05:47.408Z,100911.72
2023-02-23T04:08:14.788Z,100902.91
2023-02-23T04:10:47.749Z,100914.38
2023-02-23T04:13:16.446Z,100904.69
2023-02-23T04:16:18.211Z,100902.88
2023-02-23T04:18:44.635Z,100903.75
2023-02-23T04:21:11.063Z,100910.75
2023-02-23T04:23:37.785Z,100906.34
2023-02-23T04:26:04.276Z,100910.69
2023-02-23T04:28:30.697Z,100909.81
2023-02-23T04:30:57.123Z,100904.44
2023-02-23T04:33:23.677Z,100907.09
2023-02-23T04:35:50.532Z,100906.25
2023-02-23T04:38:16.931Z,100908.97
2023-02-23T04:40:43.361Z,100910.75
2023-02-23T04:43:12.166Z,100911.63
2023-02-23T04:45:38.631Z,100914.22
2023-02-23T04:48:05.405Z,100918.63
2023-02-23T04:50:32.689Z,100918.66
2023-02-23T04:52:59.214Z,100916.03
2023-02-23T04:55:25.942Z,100914.28
2023-02-23T04:57:53.130Z,100905.47
2023-02-23T05:00:19.652Z,100901.13
2023-02-23T05:02:46.063Z,100901.97
2023-02-23T05:05:12.617Z,100909.00
2023-02-23T05:07:39.080Z,100908.13
2023-02-23T05:10:06.486Z,100911.75
2023-02-23T05:12:32.908Z,100924.06
2023-02-23T05:14:59.369Z,100910.72
2023-02-23T05:17:25.809Z,100911.56
2023-02-23T05:19:52.235Z,100915.91
2023-02-23T05:22:18.637Z,100917.63
2023-02-23T05:24:45.040Z,100913.22
2023-02-23T05:27:11.526Z,100917.66
2023-02-23T05:29:38.028Z,100914.16
2023-02-23T05:32:09.410Z,100915.09
2023-02-23T05:34:35.898Z,100914.13
2023-02-23T05:37:02.341Z,100921.19
2023-02-23T05:39:28.811Z,100917.59
2023-02-23T05:41:55.273Z,100912.19
2023-02-23T05:44:21.663Z,100913.03
2023-02-23T05:46:48.083Z,100912.94
2023-02-23T05:49:14.488Z,100922.56
2023-02-23T05:51:40.895Z,100923.38
2023-02-23T05:54:07.278Z,100920.78
2023-02-23T05:56:33.730Z,100927.00
2023-02-23T05:59:00.118Z,100922.56
2023-02-23T06:01:27.141Z,100927.88
2023-02-23T06:03:53.671Z,100919.03
2023-02-23T06:06:20.122Z,100927.00
2023-02-23T06:08:46.702Z,100935.88
2023-02-23T06:11:13.121Z,100924.34
2023-02-23T06:13:39.521Z,100927.88
2023-02-23T06:16:06.570Z,100935.84
2023-02-23T06:18:33.034Z,100936.63
2023-02-23T06:21:00.341Z,100936.59
2023-02-23T06:23:27.961Z,100943.59
2023-02-23T06:25:54.340Z,100945.38
2023-02-23T06:28:20.748Z,100946.28
2023-02-23T06:30:47.166Z,100948.09
2023-02-23T06:33:13.629Z,100946.34
2023-02-23T06:35:40.043Z,100948.09
2023-02-23T06:38:06.519Z,100953.44
2023-02-23T06:40:33.206Z,100951.63
2023-02-23T06:42:59.613Z,100955.19
2023-02-23T06:45:26.273Z,100955.19
2023-02-23T06:47:52.683Z,100962.25
2023-02-23T06:50:19.205Z,100962.31
2023-02-23T06:52:45.625Z,100962.28
2023-02-23T06:55:12.021Z,100964.94
2023-02-23T06:57:38.441Z,100969.34
2023-02-23T07:00:05.243Z,100964.88
2023-02-23T07:02:31.675Z,100972.81
2023-02-23T07:04:58.074Z,100975.44
2023-02-23T07:07:24.589Z,100984.25
2023-02-23T07:09:51.142Z,100980.66
2023-02-23T07:12:17.577Z,100981.59
2023-02-23T07:14:43.972Z,100989.56
2023-02-23T07:17:12.505Z,100987.75
2023-02-23T07:19:39.101Z,100989.50
2023-02-23T07:22:05.487Z,100992.09
2023-02-23T07:24:32.077Z,100987.59
2023-02-23T07:26:58.485Z,100997.31
2023-02-23T07:29:24.910Z,100997.28
2023-02-23T07:31:51.473Z,100999.94
2023-02-23T07:34:17.905Z,100999.94
2023-02-23T07:36:44.376Z,101007.06
2023-02-23T07:39:10.810Z,101003.47
2023-02-23T07:41:37.197Z,101006.97
2023-02-23T07:44:03.684Z,101007.94
2023-02-23T07:46:30.087Z,101008.81
2023-02-23T07:48:56.537Z,101002.63
2023-02-23T07:51:22.958Z,101007.06
2023-02-23T07:53:49.443Z,101009.72
2023-02-23T07:56:15.904Z,101011.47
2023-02-23T07:58:42.926Z,101018.53
2023-02-23T08:01:11.395Z,101021.25
2023-02-23T08:03:38.265Z,101023.09
2023-02-23T08:06:05.369Z,101021.31
2023-02-23T08:08:33.065Z,101025.75
2023-02-23T08:11:04.552Z,101028.44
2023-02-23T08:13:32.722Z,101031.97
2023-02-23T08:16:01.124Z,101032.81
2023-02-23T08:18:27.722Z,101027.44
2023-02-23T08:21:03.918Z,101035.34
2023-02-23T08:23:31.072Z,101028.25
2023-02-23T08:25:57.575Z,101029.91
2023-02-23T08:28:23.992Z,101023.78
2023-02-23T08:30:50.475Z,101036.19
2023-02-23T08:33:16.973Z,101037.06
2023-02-23T08:35:45.500Z,101033.59
2023-02-23T08:38:13.145Z,101032.75
2023-02-23T08:40:42.570Z,101050.44
2023-02-23T08:43:10.503Z,101047.78
2023-02-23T08:45:37.478Z,101042.53
2023-02-23T08:48:04.060Z,101044.34
2023-02-23T08:50:30.616Z,101048.69
2023-02-23T08:52:57.020Z,101047.88
2023-02-23T08:55:23.465Z,101042.59
2023-02-23T08:57:49.930Z,101043.50
2023-02-23T09:00:16.962Z,101047.91
2023-02-23T09:02:43.904Z,101040.97
2023-02-23T09:05:12.054Z,101041.88
2023-02-23T09:07:38.980Z,101046.31
2023-02-23T09:10:05.849Z,101041.00
2023-02-23T09:12:32.242Z,101043.66
2023-02-23T09:14:58.662Z,101041.00
2023-02-23T09:17:25.054Z,101045.38
2023-02-23T09:19:51.531Z,101049.78
2023-02-23T09:22:17.988Z,101045.38
2023-02-23T09:24:44.774Z,101043.63
2023-02-23T09:27:11.178Z,101053.34
2023-02-23T09:29:37.633Z,101052.47
2023-02-23T09:32:04.469Z,101049.88
2023-02-23T09:34:30.951Z,101053.44
2023-02-23T09:36:57.364Z,101050.84
2023-02-23T09:39:36.897Z,101055.28
2023-02-23T09:42:12.688Z,101046.44
2023-02-23T09:44:48.786Z,101056.06
2023-02-23T09:47:37.241Z,101056.03
2023-02-23T09:50:05.369Z,101058.72
2023-02-23T09:52:42.599Z,101072.84
2023-02-23T09:55:11.145Z,101066.66
2023-02-23T09:57:39.469Z,101072.84
2023-02-23T10:00:34.100Z,101069.31
2023-02-23T10:03:06.680Z,101073.75
2023-02-23T10:05:34.289Z,101072.91
2023-02-23T10:08:03.556Z,101082.63
2023-02-23T10:10:56.320Z,101077.28
2023-02-23T10:13:38.629Z,101072.03
2023-02-23T10:16:30.229Z,101075.53
2023-02-23T10:19:18.753Z,101076.34
2023-02-23T10:21:48.825Z,101079.78
2023-02-23T10:24:38.609Z,101078.06
2023-02-23T10:27:16.566Z,101076.34
2023-02-23T10:29:51.741Z,101075.50
2023-02-23T10:32:19.863Z,101077.28
2023-02-23T10:34:46.462Z,101068.53
2023-02-23T10:37:18.705Z,101080.84
2023-02-23T10:39:45.127Z,101080.88
2023-02-23T10:42:14.745Z,101087.19
2023-02-23T10:44:45.449Z,101087.25
2023-02-23T10:47:14.983Z,101087.31
2023-02-23T10:49:47.856Z,101088.16
2023-02-23T10:52:22.756Z,101085.50
2023-02-23T10:54:52.474Z,101086.41
2023-02-23T10:57:19.750Z,101092.66
2023-02-23T11:00:18.491Z,101094.50
2023-02-23T11:02:44.942Z,101092.75
2023-02-23T11:05:29.698Z,101095.34
2023-02-23T11:08:25.259Z,101096.09
2023-02-23T11:11:06.697Z,101086.28
2023-02-23T11:13:36.048Z,101087.91
2023-02-23T11:16:26.920Z,101077.16
2023-02-23T11:18:57.045Z,101081.38
2023-02-23T11:21:32.961Z,101070.44
2023-02-23T11:24:21.380Z,101072.06
2023-02-23T11:26:48.922Z,101064.81
2023-02-23T11:29:38.068Z,101065.63
2023-02-23T11:32:37.268Z,101067.28
2023-02-23T11:35:14.657Z,101066.28
2023-02-23T11:37:41.077Z,101072.34
2023-02-23T11:40:21.006Z,101061.75
2023-02-23T11:42:58.339Z,101064.44
2023-02-23T11:45:26.173Z,101059.22
2023-02-23T11:47:54.172Z,101061.97
2023-02-23T11:50:31.558Z,101062.09
2023-02-23T11:53:00.135Z,101061.22
2023-02-23T11:55:26.587Z,101050.59
2023-02-23T11:57:53.094Z,101053.16
2023-02-23T12:00:25.094Z,101052.13
2023-02-23T12:02:58.910Z,101053.06
2023-02-23T12:05:29.942Z,101047.78
2023-02-23T12:08:06.719Z,101050.56
2023-02-23T12:10:44.308Z,101047.94
2023-02-23T12:13:40.685Z,101053.38
2023-02-23T12:16:13.051Z,101051.59
2023-02-23T12:19:00.540Z,101049.81
2023-02-23T12:21:32.906Z,101056.81
2023-02-23T12:24:12.398Z,101044.50
2023-02-23T12:26:48.956Z,101036.44
2023-02-23T12:29:50.626Z,101049.84
2023-02-23T12:32:37.319Z,101059.50
2023-02-23T12:35:14.552Z,101054.34
2023-02-23T12:37:43.142Z,101050.88
2023-02-23T12:40:24.627Z,101058.00
2023-02-23T12:43:00.801Z,101050.88
2023-02-23T12:45:44.062Z,101050.94
2023-02-23T12:48:35.676Z,101048.22
2023-02-23T12:51:04.165Z,101054.41
2023-02-23T12:53:41.096Z,101050.81
2023-02-23T12:56:33.842Z,101046.47
2023-02-23T12:59:16.911Z,101042.03
2023-02-23T13:01:48.227Z,101049.91
2023-02-23T13:04:39.521Z,101053.38
2023-02-23T13:07:21.656Z,101049.03
2023-02-23T13:10:13.752Z,101043.75
2023-02-23T13:12:57.491Z,101048.13
2023-02-23T13:15:45.131Z,101046.38
2023-02-23T13:18:31.897Z,101046.38
2023-02-23T13:21:03.585Z,101041.06
2023-02-23T13:23:45.069Z,101035.75
2023-02-23T13:26:32.687Z,101036.66
2023-02-23T13:29:20.482Z,101039.38
2023-02-23T13:31:47.101Z,101036.63
2023-02-23T13:34:35.408Z,101042.81
2023-02-23T13:37:05.284Z,101037.50
2023-02-23T13:39:46.345Z,101040.16
2023-02-23T13:42:48.746Z,101029.50
2023-02-23T13:45:39.209Z,101029.34
2023-02-23T13:48:25.415Z,101034.66
2023-02-23T13:51:00.520Z,101029.25
2023-02-23T13:53:32.815Z,101038.13
2023-02-23T13:56:00.973Z,101026.66
2023-02-23T13:58:29.796Z,101026.66
2023-02-23T14:01:10.830Z,101032.78
2023-02-23T14:03:43.519Z,101020.50
2023-02-23T14:06:12.319Z,101023.28
2023-02-23T14:08:38.762Z,101026.72
2023-02-23T14:11:05.554Z,101030.34
2023-02-23T14:13:42.395Z,101030.41
2023-02-23T14:16:19.459Z,101038.19
2023-02-23T14:19:11.290Z,101032.00
2023-02-23T14:21:43.364Z,101023.13
2023-02-23T14:24:17.012Z,101034.66
2023-02-23T14:27:04.440Z,101025.81
2023-02-23T14:29:31.097Z,101032.94
2023-02-23T14:32:17.061Z,101031.09
2023-02-23T14:34:50.600Z,101035.47
2023-02-23T14:37:26.486Z,101028.41
2023-02-23T14:40:00.167Z,101028.41
2023-02-23T14:42:27.691Z,101029.25
2023-02-23T14:44:54.399Z,101023.13
2023-02-23T14:47:22.393Z,101029.34
2023-02-23T14:49:55.975Z,101027.63
2023-02-23T14:52:27.862Z,101032.88
2023-02-23T14:55:12.441Z,101027.41
2023-02-23T14:57:40.963Z,101035.34
2023-02-23T15:00:29.160Z,101030.97
2023-02-23T15:03:00.314Z,101028.28
2023-02-23T15:05:32.049Z,101028.25
2023-02-23T15:07:59.977Z,101031.81
2023-02-23T15:10:46.660Z,101034.44
2023-02-23T15:13:19.083Z,101035.31
2023-02-23T15:15:45.655Z,101030.88
2023-02-23T15:18:19.800Z,101034.56
2023-02-23T15:20:47.109Z,101030.91
2023-02-23T15:23:17.075Z,101033.50
2023-02-23T15:25:43.498Z,101030.91
2023-02-23T15:28:28.222Z,101049.63
2023-02-23T15:30:55.960Z,101039.09
2023-02-23T15:33:22.560Z,101047.25
2023-02-23T15:36:02.575Z,101045.63
2023-02-23T15:38:45.723Z,101049.19
2023-02-23T15:41:25.700Z,101051.00
2023-02-23T15:43:52.190Z,101052.88
2023-02-23T15:46:22.885Z,101050.25
2023-02-23T15:48:49.407Z,101050.34
2023-02-23T15:51:38.194Z,101051.28
2023-02-23T15:54:32.646Z,101053.16
2023-02-23T15:57:03.614Z,101049.72
2023-02-23T15:59:34.950Z,101042.72
2023-02-23T16:02:01.627Z,101047.97
2023-02-23T16:04:32.376Z,101046.19
2023-02-23T16:07:23.214Z,101048.06
2023-02-23T16:09:53.450Z,101042.91
2023-02-23T16:12:22.521Z,101050.00
2023-02-23T16:14:53.422Z,101042.81
2023-02-23T16:17:41.710Z,101056.16
2023-02-23T16:20:32.437Z,101055.44
2023-02-23T16:22:58.837Z,101054.56
2023-02-23T16:25:26.096Z,101059.03
2023-02-23T16:28:02.693Z,101052.84
2023-02-23T16:30:32.307Z,101055.50
2023-02-23T16:33:21.163Z,101059.16
2023-02-23T16:35:49.843Z,101060.03
2023-02-23T16:38:33.549Z,101063.69
2023-02-23T16:40:59.944Z,101055.75
2023-02-23T16:43:26.433Z,101054.09
2023-02-23T16:45:53.047Z,101070.06
2023-02-23T16:48:19.512Z,101068.28
2023-02-23T16:50:45.909Z,101076.34
2023-02-23T16:53:12.676Z,101077.31
2023-02-23T16:55:48.891Z,101076.38
2023-02-23T16:58:16.821Z,101087.16
2023-02-23T17:00:43.271Z,101081.91
2023-02-23T17:03:27.223Z,101088.09
2023-02-23T17:05:53.822Z,101082.00
2023-02-23T17:08:20.242Z,101091.72
2023-02-23T17:10:49.039Z,101103.19
2023-02-23T17:13:26.039Z,101098.84
2023-02-23T17:15:53.936Z,101099.75
2023-02-23T17:18:21.366Z,101097.13
2023-02-23T17:20:47.785Z,101090.94
2023-02-23T17:23:14.220Z,101100.69
2023-02-23T17:25:40.909Z,101093.69
2023-02-23T17:28:07.328Z,101106.94
2023-02-23T17:30:34.171Z,101099.88
2023-02-23T17:33:00.736Z,101106.94
2023-02-23T17:35:27.368Z,101106.91
2023-02-23T17:37:53.858Z,101101.63
2023-02-23T17:40:21.969Z,101111.38
2023-02-23T17:42:48.348Z,101106.97
2023-02-23T17:45:14.780Z,101114.94
2023-02-23T17:47:41.167Z,101111.47
2023-02-23T17:50:07.950Z,101107.06
2023-02-23T17:52:34.383Z,101121.19
2023-02-23T17:55:00.821Z,101121.22
2023-02-23T17:57:27.217Z,101115.09
2023-02-23T17:59:53.650Z,101118.66
2023-02-23T18:02:20.489Z,101116.06
2023-02-23T18:04:47.800Z,101107.19
2023-02-23T18:07:14.275Z,101109.88
2023-02-23T18:09:40.725Z,101110.84
2023-02-23T18:12:07.760Z,101104.75
2023-02-23T18:14:34.146Z,101102.97
2023-02-23T18:17:00.693Z,101110.94
2023-02-23T18:19:27.296Z,101094.22
2023-02-23T18:21:53.778Z,101104.75
2023-02-23T18:24:20.183Z,101110.03
2023-02-23T18:26:46.588Z,101110.97
2023-02-23T18:29:13.012Z,101113.63
2023-02-23T18:31:39.528Z,101123.34
2023-02-23T18:34:08.593Z,101118.06
2023-02-23T18:36:37.984Z,101101.28
2023-02-23T18:39:06.596Z,101111.00
2023-02-23T18:41:33.049Z,101114.53
2023-02-23T18:44:04.620Z,101112.81
2023-02-23T18:46:31.122Z,101112.84
2023-02-23T18:48:57.567Z,101115.56
2023-02-23T18:51:24.154Z,101109.44
2023-02-23T18:53:50.669Z,101112.97
2023-02-23T18:56:18.967Z,101105.06
2023-02-23T18:58:45.745Z,101120.94
2023-02-23T19:01:13.427Z,101113.91
2023-02-23T19:03:39.881Z,101119.16
2023-02-23T19:06:09.222Z,101123.59
2023-02-23T19:08:35.652Z,101110.41
2023-02-23T19:11:02.130Z,101116.63
2023-02-23T19:13:29.071Z,101107.84
2023-02-23T19:15:55.520Z,101110.44
2023-02-23T19:18:22.027Z,101109.56
2023-02-23T19:20:48.948Z,101115.75
2023-02-23T19:23:15.408Z,101106.06
2023-02-23T19:25:41.813Z,101110.50
2023-02-23T19:28:08.275Z,101113.97
2023-02-23T19:30:34.683Z,101104.28
2023-02-23T19:33:01.459Z,101103.44
2023-02-23T19:35:28.009Z,101114.00
2023-02-23T19:37:56.777Z,101108.69
2023-02-23T19:40:23.342Z,101108.75
2023-02-23T19:42:50.468Z,101109.63
2023-02-23T19:45:17.700Z,101110.50
2023-02-23T19:47:45.065Z,101106.09
2023-02-23T19:50:14.248Z,101100.84
2023-02-23T19:52:41.898Z,101103.47
2023-02-23T19:55:10.299Z,101106.09
2023-02-23T19:57:36.916Z,101107.88
2023-02-23T20:00:05.508Z,101113.16
2023-02-23T20:02:32.201Z,101106.13
2023-02-23T20:04:58.767Z,101106.13
2023-02-23T20:07:25.226Z,101106.09
2023-02-23T20:09:51.691Z,101106.13
2023-02-23T20:12:19.541Z,101105.25
2023-02-23T20:14:45.980Z,101106.09
2023-02-23T20:17:12.728Z,101092.03
2023-02-23T20:19:39.159Z,101111.38
2023-02-23T20:22:05.615Z,101107.88
2023-02-23T20:24:32.141Z,101109.63
2023-02-23T20:26:58.551Z,101111.38
2023-02-23T20:29:24.977Z,101110.50
2023-02-23T20:31:51.549Z,101113.16
2023-02-23T20:34:21.491Z,101113.16
2023-02-23T20:36:49.188Z,101114.03
2023-02-23T20:39:15.614Z,101115.78
2023-02-23T20:41:43.485Z,101111.41
2023-02-23T20:44:11.381Z,101103.47
2023-02-23T20:46:38.689Z,101102.59
2023-02-23T20:49:05.145Z,101096.44
2023-02-23T20:51:31.537Z,101103.47
2023-02-23T20:53:57.981Z,101098.19
2023-02-23T20:56:24.381Z,101099.06
2023-02-23T20:58:50.764Z,101098.16
2023-02-23T21:01:18.962Z,101093.75
2023-02-23T21:03:45.765Z,101101.69
2023-02-23T21:06:12.515Z,101097.28
2023-02-23T21:08:39.109Z,101097.31
2023-02-23T21:11:06.780Z,101097.28
2023-02-23T21:13:33.262Z,101103.44
2023-02-23T21:15:59.719Z,101095.53
2023-02-23T21:18:27.274Z,101092.88
2023-02-23T21:20:54.130Z,101089.34
2023-02-23T21:23:20.586Z,101084.06
2023-02-23T21:25:47.219Z,101083.19
2023-02-23T21:28:18.178Z,101079.66
2023-02-23T21:30:45.120Z,101076.13
2023-02-23T21:33:11.549Z,101078.78
2023-02-23T21:35:37.958Z,101073.50
2023-02-23T21:38:04.518Z,101075.22
2023-02-23T21:40:30.957Z,101073.47
2023-02-23T21:42:57.344Z,101062.88
2023-02-23T21:45:23.754Z,101077.88
2023-02-23T21:47:50.168Z,101062.00
2023-02-23T21:50:17.750Z,101076.97
2023-02-23T21:52:44.937Z,101075.19
2023-02-23T21:55:20.768Z,101061.13
2023-02-23T21:57:47.822Z,101065.53
2023-02-23T22:00:14.495Z,101072.56
2023-02-23T22:02:40.962Z,101070.78
2023-02-23T22:05:10.647Z,101064.66
2023-02-23T22:07:37.057Z,101062.00
2023-02-23T22:10:04.055Z,101052.34
2023-02-23T22:12:30.481Z,101054.09
2023-02-23T22:14:57.233Z,101051.47
2023-02-23T22:17:23.662Z,101046.19
2023-02-23T22:19:50.904Z,101047.94
2023-02-23T22:22:17.478Z,101036.47
2023-02-23T22:24:43.902Z,101042.63
2023-02-23T22:27:10.345Z,101040.88
2023-02-23T22:29:36.742Z,101040.00
2023-02-23T22:32:03.270Z,101044.41
2023-02-23T22:34:29.737Z,101036.50
2023-02-23T22:36:56.166Z,101036.50
2023-02-23T22:39:22.560Z,101039.16
2023-02-23T22:41:48.982Z,101040.88
2023-02-23T22:44:19.484Z,101035.59
2023-02-23T22:46:47.392Z,101030.34
2023-02-23T22:49:13.904Z,101027.69
2023-02-23T22:51:40.335Z,101028.56
2023-02-23T22:54:06.915Z,101024.16
2023-02-23T22:56:33.748Z,101015.38
2023-02-23T22:59:00.295Z,101017.13
2023-02-23T23:01:26.704Z,101014.50
2023-02-23T23:03:53.105Z,101001.31
2023-02-23T23:06:19.826Z,100986.38
2023-02-23T23:08:46.220Z,100985.50
2023-02-23T23:11:14.378Z,100995.16
2023-02-23T23:13:45.695Z,100990.75
2023-02-23T23:16:22.262Z,100977.53
2023-02-23T23:18:59.266Z,100984.59
2023-02-23T23:21:25.643Z,100974.94
2023-02-23T23:23:54.862Z,100973.09
2023-02-23T23:26:21.884Z,100979.25
2023-02-23T23:28:52.988Z,100975.78
2023-02-23T23:31:22.003Z,100972.28
2023-02-23T23:33:52.265Z,100962.63
2023-02-23T23:36:20.169Z,100952.94
2023-02-23T23:38:46.624Z,100950.31
2023-02-23T23:41:13.117Z,100948.53
2023-02-23T23:43:43.500Z,100942.38
2023-02-23T23:46:09.906Z,100949.41
2023-02-23T23:48:36.414Z,100943.25
2023-02-23T23:51:03.122Z,100948.53
2023-02-23T23:53:29.542Z,100939.72
2023-02-23T23:55:55.936Z,100939.72
2023-02-23T23:58:22.356Z,100931.81
